Time;durP1;ratioP1;P1;durP2;ratioP2;P2;SDS_P1;SDS_P2;PMS_P1;PMS_P2;Temp;Humidity;BMP_temperature;BMP_pressure;BME280_temperature;BME280_humidity;BME280_pressure;Samples;Min_cycle;Max_cycle;Signal;HPM_P1;HPM_P2
2023/03/02 00:00:36;;;;;;;506.38;183.30;;;-5.40;99.90;;;;;;4951292;28;20127;-78
2023/03/02 00:03:04;;;;;;;481.35;180.50;;;-5.40;99.90;;;;;;4951564;28;20054;-78
2023/03/02 00:05:30;;;;;;;398.85;139.48;;;-5.40;99.90;;;;;;4952587;28;20114;-78
2023/03/02 00:07:57;;;;;;;405.45;142.15;;;-5.40;99.90;;;;;;4952805;28;20070;-77
2023/03/02 00:10:24;;;;;;;241.25;93.95;;;-5.40;99.90;;;;;;4952667;28;20114;-76
2023/03/02 00:12:50;;;;;;;195.07;77.00;;;-5.40;99.90;;;;;;4951411;28;20480;-76
2023/03/02 00:15:15;;;;;;;180.98;73.93;;;-5.50;99.90;;;;;;4952506;28;20114;-76
2023/03/02 00:17:41;;;;;;;185.35;75.22;;;-5.50;99.90;;;;;;4951407;28;20084;-75
2023/03/02 00:20:10;;;;;;;161.65;69.57;;;-5.60;99.90;;;;;;4952375;28;20041;-76
2023/03/02 00:22:38;;;;;;;284.98;107.90;;;-5.60;99.90;;;;;;4952553;28;20015;-79
2023/03/02 00:25:04;;;;;;;478.48;178.70;;;-5.60;99.90;;;;;;4950986;28;20084;-78
2023/03/02 00:27:30;;;;;;;521.97;209.50;;;-5.60;99.90;;;;;;4952429;28;20034;-76
2023/03/02 00:29:56;;;;;;;511.00;200.68;;;-5.60;99.90;;;;;;4952515;28;20114;-76
2023/03/02 00:32:23;;;;;;;481.75;182.23;;;-5.60;99.90;;;;;;4952375;28;20469;-76
2023/03/02 00:34:49;;;;;;;452.25;169.43;;;-5.60;99.90;;;;;;4956710;28;20070;-76
2023/03/02 00:37:15;;;;;;;424.98;153.80;;;-5.60;99.90;;;;;;4958682;28;20059;-76
2023/03/02 00:39:41;;;;;;;432.30;152.80;;;-5.60;99.90;;;;;;4958568;28;20043;-77
2023/03/02 00:42:07;;;;;;;487.80;193.02;;;-5.60;99.90;;;;;;4957418;28;20076;-76
2023/03/02 00:44:32;;;;;;;283.15;102.30;;;-5.50;99.90;;;;;;4957431;28;20023;-76
2023/03/02 00:46:58;;;;;;;151.85;58.38;;;-5.50;99.90;;;;;;4958432;28;20126;-76
2023/03/02 00:49:24;;;;;;;94.70;35.05;;;-5.40;99.90;;;;;;4958615;28;20110;-77
2023/03/02 00:51:49;;;;;;;73.60;33.92;;;-5.10;99.90;;;;;;4958523;28;20031;-76
2023/03/02 00:54:15;;;;;;;61.17;25.77;;;-4.80;99.90;;;;;;4958579;28;20019;-77
2023/03/02 00:56:42;;;;;;;60.55;28.08;;;-4.50;99.90;;;;;;4958598;28;20023;-77
2023/03/02 00:59:25;;;;;;;57.58;28.33;;;-4.30;99.90;;;;;;4958429;28;20426;-77
2023/03/02 01:01:57;;;;;;;70.32;27.58;;;-4.20;99.90;;;;;;4957204;29;20465;-77
2023/03/02 01:04:35;;;;;;;59.45;25.05;;;-4.10;99.90;;;;;;4957274;28;20027;-76
2023/03/02 01:07:12;;;;;;;78.45;32.05;;;-4.10;99.90;;;;;;4958370;28;20106;-77
2023/03/02 01:09:40;;;;;;;69.28;31.50;;;-4.00;99.90;;;;;;4958304;28;20035;-78
2023/03/02 01:12:09;;;;;;;75.57;30.75;;;-4.00;99.90;;;;;;4957045;28;20469;-76
2023/03/02 01:14:39;;;;;;;88.75;42.45;;;-4.10;99.90;;;;;;4958507;28;20023;-78
2023/03/02 01:17:06;;;;;;;81.25;33.88;;;-4.10;99.90;;;;;;4958198;28;20031;-77
2023/03/02 01:19:32;;;;;;;112.82;51.47;;;-4.10;99.90;;;;;;4958116;28;20031;-77
2023/03/02 01:21:58;;;;;;;112.95;50.72;;;-4.30;99.90;;;;;;4956868;28;20023;-77
2023/03/02 01:24:24;;;;;;;122.30;49.70;;;-4.60;99.90;;;;;;4958234;28;20035;-80
2023/03/02 01:26:49;;;;;;;100.95;46.05;;;-4.70;99.90;;;;;;4958074;28;20027;-77
2023/03/02 01:29:15;;;;;;;89.68;43.22;;;-5.00;99.90;;;;;;4958002;28;20110;-78
2023/03/02 01:31:40;;;;;;;93.53;42.03;;;-5.10;99.90;;;;;;4958035;28;20019;-79
2023/03/02 01:34:06;;;;;;;102.97;43.88;;;-5.20;99.90;;;;;;4956895;29;20043;-79
2023/03/02 01:36:32;;;;;;;102.22;44.72;;;-5.20;99.90;;;;;;4975080;28;20027;-77
2023/03/02 01:38:58;;;;;;;100.93;43.75;;;-5.20;99.90;;;;;;4977251;28;20483;-77
2023/03/02 01:41:23;;;;;;;91.25;37.42;;;-5.20;99.90;;;;;;4958838;28;20038;-76
2023/03/02 01:43:49;;;;;;;63.63;29.77;;;-5.10;99.90;;;;;;4957834;28;20015;-78
2023/03/02 01:46:20;;;;;;;77.63;34.80;;;-5.10;99.90;;;;;;4952675;28;20044;-78
2023/03/02 01:49:18;;;;;;;69.97;31.02;;;-5.00;99.90;;;;;;4954775;28;20137;-78
2023/03/02 01:51:46;;;;;;;71.40;32.75;;;-4.90;99.90;;;;;;4997858;28;20067;-75
2023/03/02 01:54:21;;;;;;;58.95;26.30;;;-4.80;99.90;;;;;;4953582;28;20058;-77
2023/03/02 01:56:50;;;;;;;60.25;27.60;;;-4.70;99.90;;;;;;4953395;29;20093;-76
2023/03/02 01:59:18;;;;;;;72.53;30.85;;;-4.60;99.90;;;;;;4954522;28;20481;-75
2023/03/02 02:01:49;;;;;;;66.85;29.65;;;-4.50;99.90;;;;;;4953277;28;20043;-77
2023/03/02 02:04:15;;;;;;;63.60;28.15;;;-4.40;99.90;;;;;;4953273;29;20027;-78
2023/03/02 02:06:50;;;;;;;88.57;34.75;;;-4.30;99.90;;;;;;4953077;28;20019;-76
2023/03/02 02:09:19;;;;;;;72.93;31.98;;;-4.20;99.90;;;;;;4954485;28;20028;-76
2023/03/02 02:11:45;;;;;;;75.95;32.10;;;-4.20;99.90;;;;;;4954318;29;20031;-76
2023/03/02 02:14:11;;;;;;;75.38;33.10;;;-4.30;99.90;;;;;;4954327;28;20492;-76
2023/03/02 02:16:37;;;;;;;79.20;37.28;;;-4.30;99.90;;;;;;4954415;29;20054;-77
2023/03/02 02:19:30;;;;;;;83.95;38.38;;;-4.40;99.90;;;;;;4954267;28;20041;-76
2023/03/02 02:21:56;;;;;;;;;;;-4.50;99.90;;;;;;4954810;28;20392;-76
2023/03/02 02:24:30;;;;;;;83.10;40.22;;;-4.50;99.90;;;;;;4953149;29;19907;-77
2023/03/02 02:26:56;;;;;;;87.47;40.30;;;-4.60;99.90;;;;;;4954308;28;20505;-76
2023/03/02 02:29:29;;;;;;;68.10;34.20;;;-4.70;99.90;;;;;;4954115;28;20114;-77
2023/03/02 02:32:22;;;;;;;52.53;25.20;;;-4.80;99.90;;;;;;4954224;29;20370;-75
2023/03/02 02:34:55;;;;;;;50.60;27.08;;;-4.70;99.90;;;;;;4952573;28;20497;-75
2023/03/02 02:37:32;;;;;;;54.45;24.83;;;-4.70;99.90;;;;;;4954124;28;20016;-76
2023/03/02 02:40:00;;;;;;;58.03;26.27;;;-4.60;99.90;;;;;;4952671;28;20065;-76
2023/03/02 02:42:36;;;;;;;59.03;27.45;;;-4.60;99.90;;;;;;4952781;29;20110;-77
2023/03/02 02:45:06;;;;;;;61.15;28.20;;;-4.50;99.90;;;;;;4952897;29;20523;-76
2023/03/02 02:47:33;;;;;;;58.08;26.98;;;-4.50;99.90;;;;;;4952701;29;20075;-76
2023/03/02 02:49:59;;;;;;;63.90;27.77;;;-4.50;99.90;;;;;;4952878;28;20023;-76
2023/03/02 02:52:27;;;;;;;61.38;30.25;;;-4.50;99.90;;;;;;4952709;29;20019;-76
2023/03/02 02:54:55;;;;;;;63.65;29.70;;;-4.50;99.90;;;;;;4952651;29;20027;-76
2023/03/02 02:57:24;;;;;;;65.32;33.20;;;-4.50;99.90;;;;;;4952247;28;20350;-76
2023/03/02 02:59:53;;;;;;;69.35;33.28;;;-4.60;99.90;;;;;;4953619;28;20039;-76
2023/03/02 03:02:22;;;;;;;79.13;34.22;;;-4.60;99.90;;;;;;4953685;29;20551;-76
2023/03/02 03:04:49;;;;;;;82.72;36.17;;;-4.70;99.90;;;;;;4952365;28;20028;-77
2023/03/02 03:07:21;;;;;;;76.75;37.45;;;-4.80;99.90;;;;;;4952184;28;20481;-77
2023/03/02 03:10:02;;;;;;;79.72;37.38;;;-4.80;99.90;;;;;;4953486;28;20028;-77
2023/03/02 03:12:32;;;;;;;73.75;35.40;;;-4.90;99.90;;;;;;4952239;29;20436;-77
2023/03/02 03:14:58;;;;;;;107.35;49.72;;;-4.90;99.90;;;;;;4953478;28;20534;-77
2023/03/02 03:17:24;;;;;;;88.85;42.90;;;-5.00;99.90;;;;;;4953352;28;20039;-78
2023/03/02 03:19:50;;;;;;;86.05;39.08;;;-5.00;99.90;;;;;;4951945;28;20443;-77
2023/03/02 03:22:16;;;;;;;83.07;38.17;;;-5.20;99.90;;;;;;4952243;28;20038;-77
2023/03/02 03:24:44;;;;;;;78.63;35.35;;;-5.20;99.90;;;;;;4953375;28;20057;-77
2023/03/02 03:27:12;;;;;;;80.07;34.90;;;-5.30;99.90;;;;;;4953496;28;20104;-77
2023/03/02 03:29:40;;;;;;;92.40;40.85;;;-5.30;99.90;;;;;;4952000;28;20028;-77
2023/03/02 03:32:06;;;;;;;85.85;38.60;;;-5.30;99.90;;;;;;4951997;28;20055;-76
2023/03/02 03:34:36;;;;;;;85.55;39.70;;;-5.40;99.90;;;;;;4951834;29;20465;-76
2023/03/02 03:37:01;;;;;;;87.18;41.30;;;-5.40;99.90;;;;;;4951917;29;20085;-76
2023/03/02 03:39:31;;;;;;;98.70;47.17;;;-5.40;99.90;;;;;;4966271;28;20114;-76
2023/03/02 03:41:56;;;;;;;89.55;41.90;;;-5.40;99.90;;;;;;4971312;28;20365;-76
2023/03/02 03:44:22;;;;;;;86.30;39.67;;;-5.40;99.90;;;;;;4972339;28;20037;-77
2023/03/02 03:46:48;;;;;;;85.50;41.67;;;-5.40;99.90;;;;;;4970872;28;20058;-77
2023/03/02 03:49:15;;;;;;;87.60;40.75;;;-5.40;99.90;;;;;;4971336;28;20047;-76
2023/03/02 03:51:41;;;;;;;84.43;41.53;;;-5.40;99.90;;;;;;4972279;28;20167;-76
2023/03/02 03:54:08;;;;;;;86.13;42.70;;;-5.50;99.90;;;;;;4970969;28;20027;-76
2023/03/02 03:56:41;;;;;;;89.40;41.83;;;-5.50;99.90;;;;;;4972188;28;20084;-76
2023/03/02 03:59:09;;;;;;;85.40;41.65;;;-5.50;99.90;;;;;;4972283;28;20522;-77
2023/03/02 04:01:47;;;;;;;84.45;34.15;;;-5.60;99.90;;;;;;4970814;28;20019;-77
2023/03/02 04:04:16;;;;;;;73.05;33.78;;;-5.60;99.90;;;;;;4972122;28;20034;-77
2023/03/02 04:06:42;;;;;;;76.13;34.40;;;-5.60;99.90;;;;;;4970811;28;20031;-76
2023/03/02 04:09:08;;;;;;;76.63;34.72;;;-5.60;99.90;;;;;;4971268;28;20423;-76
2023/03/02 04:11:37;;;;;;;76.28;33.50;;;-5.60;99.90;;;;;;4971899;28;20053;-78
2023/03/02 04:14:03;;;;;;;76.57;35.70;;;-5.60;99.90;;;;;;4970506;28;20034;-77
2023/03/02 04:16:29;;;;;;;76.47;34.75;;;-5.60;99.90;;;;;;4970715;28;20050;-77
2023/03/02 04:18:55;;;;;;;71.47;35.08;;;-5.60;99.90;;;;;;4970644;28;20061;-77
2023/03/02 04:21:21;;;;;;;77.82;38.20;;;-5.50;99.90;;;;;;4972081;28;20026;-77
2023/03/02 04:23:47;;;;;;;71.15;32.45;;;-5.50;99.90;;;;;;4971807;28;20420;-79
2023/03/02 04:26:12;;;;;;;76.50;33.78;;;-5.60;99.90;;;;;;4970456;28;20042;-78
2023/03/02 04:28:38;;;;;;;79.65;37.40;;;-5.60;99.90;;;;;;4970457;28;20019;-79
2023/03/02 04:31:04;;;;;;;85.57;39.53;;;-5.70;99.90;;;;;;4971479;28;20365;-77
2023/03/02 04:33:29;;;;;;;104.00;42.78;;;-5.70;99.90;;;;;;4970614;28;20030;-77
2023/03/02 04:35:55;;;;;;;74.15;35.72;;;-5.70;99.90;;;;;;4971493;28;20027;-77
2023/03/02 04:38:21;;;;;;;70.03;34.40;;;-5.70;99.90;;;;;;4971714;28;20035;-77
2023/03/02 04:40:47;;;;;;;75.43;35.35;;;-5.70;99.90;;;;;;4959875;28;20122;-77
2023/03/02 04:43:12;;;;;;;85.50;38.30;;;-5.80;99.90;;;;;;4952280;28;20032;-78
2023/03/02 04:45:39;;;;;;;78.03;36.45;;;-5.80;99.90;;;;;;4949765;28;20024;-78
2023/03/02 04:48:06;;;;;;;68.10;34.92;;;-5.80;99.90;;;;;;4948652;28;20114;-76
2023/03/02 04:50:31;;;;;;;66.38;32.63;;;-5.80;99.90;;;;;;4950366;28;20099;-77
2023/03/02 04:52:57;;;;;;;69.57;31.00;;;-5.80;99.90;;;;;;4948370;28;20599;-77
2023/03/02 04:55:25;;;;;;;66.93;31.60;;;-5.80;99.90;;;;;;4947547;28;20484;-77
2023/03/02 04:57:50;;;;;;;65.72;30.88;;;-5.80;99.90;;;;;;4951689;28;20085;-77
2023/03/02 05:00:18;;;;;;;65.95;34.60;;;-5.80;99.90;;;;;;4950392;29;20040;-77
2023/03/02 05:02:44;;;;;;;85.07;41.00;;;-5.80;99.90;;;;;;4934711;29;20149;-77
2023/03/02 05:05:18;;;;;;;71.95;36.72;;;-5.80;99.90;;;;;;4951665;28;20477;-77
2023/03/02 05:07:44;;;;;;;77.88;35.80;;;-5.80;99.90;;;;;;4967868;28;20035;-78
2023/03/02 05:10:11;;;;;;;75.68;36.92;;;-5.80;99.90;;;;;;4970049;28;20515;-77
2023/03/02 05:15:23;;;;;;;79.18;34.97;;;-5.90;99.90;;;;;;4951775;29;20041;-77
2023/03/02 05:17:48;;;;;;;73.05;34.60;;;-5.90;99.90;;;;;;4950592;29;20077;-76
2023/03/02 05:20:14;;;;;;;69.82;33.50;;;-5.90;99.90;;;;;;4952054;28;20035;-77
2023/03/02 05:22:40;;;;;;;73.07;33.38;;;-5.90;99.90;;;;;;4955149;28;20028;-77
2023/03/02 05:25:06;;;;;;;75.18;32.85;;;-5.90;99.90;;;;;;4955028;28;20110;-76
2023/03/02 05:27:31;;;;;;;71.63;33.05;;;-5.90;99.90;;;;;;4954937;28;20043;-77
2023/03/02 05:29:57;;;;;;;70.00;31.60;;;-5.90;99.90;;;;;;4955017;29;20027;-77
2023/03/02 05:32:23;;;;;;;73.60;34.15;;;-5.90;99.90;;;;;;4954864;28;20038;-81
2023/03/02 05:34:48;;;;;;;63.38;29.58;;;-5.90;99.90;;;;;;4957513;28;20030;-79
2023/03/02 05:37:14;;;;;;;71.82;33.80;;;-5.90;99.90;;;;;;4974220;28;20472;-77
2023/03/02 05:39:39;;;;;;;71.60;32.37;;;-5.90;99.90;;;;;;4961220;28;20043;-77
2023/03/02 05:42:05;;;;;;;74.60;37.22;;;-5.80;99.90;;;;;;4954955;28;20031;-77
2023/03/02 05:44:31;;;;;;;98.25;40.85;;;-5.80;99.90;;;;;;4955019;28;20050;-80
2023/03/02 05:46:56;;;;;;;85.75;39.70;;;-5.80;99.90;;;;;;4954555;28;20043;-80
2023/03/02 05:49:22;;;;;;;72.95;37.38;;;-5.80;99.90;;;;;;4953551;28;20126;-77
2023/03/02 05:51:48;;;;;;;77.05;38.22;;;-5.80;99.90;;;;;;4953477;28;20050;-77
2023/03/02 05:54:14;;;;;;;83.28;39.33;;;-5.80;99.90;;;;;;4959723;28;20027;-77
2023/03/02 05:56:40;;;;;;;84.47;39.92;;;-5.70;99.90;;;;;;4962017;28;20016;-77
2023/03/02 05:59:07;;;;;;;82.70;40.85;;;-5.70;99.90;;;;;;4962324;28;20026;-77
2023/03/02 06:01:33;;;;;;;90.05;42.60;;;-5.70;99.90;;;;;;4963446;28;20035;-78
2023/03/02 06:03:59;;;;;;;107.45;48.28;;;-5.60;99.90;;;;;;4968623;28;20031;-78
2023/03/02 06:06:25;;;;;;;89.05;43.30;;;-5.50;99.90;;;;;;4972527;28;20391;-77
2023/03/02 06:08:50;;;;;;;84.68;43.10;;;-5.50;99.90;;;;;;4973381;28;20496;-77
2023/03/02 06:11:16;;;;;;;90.70;43.83;;;-5.40;99.90;;;;;;4973577;28;20365;-77
2023/03/02 06:13:42;;;;;;;101.15;47.25;;;-5.40;99.90;;;;;;4973681;28;20019;-78
2023/03/02 06:16:08;;;;;;;95.15;46.10;;;-5.30;99.90;;;;;;4973485;28;20594;-77
2023/03/02 06:18:35;;;;;;;106.00;53.05;;;-5.30;99.90;;;;;;4973572;28;20034;-81
2023/03/02 06:21:01;;;;;;;113.32;49.50;;;-5.20;99.90;;;;;;4972589;28;20130;-77
2023/03/02 06:23:27;;;;;;;113.22;48.15;;;-5.10;99.90;;;;;;4970638;28;20137;-78
2023/03/02 06:25:53;;;;;;;107.60;48.70;;;-5.00;99.90;;;;;;4956512;28;20023;-77
2023/03/02 06:28:19;;;;;;;110.70;46.92;;;-4.90;99.90;;;;;;4952653;29;20034;-77
2023/03/02 06:30:47;;;;;;;106.55;50.53;;;-4.80;99.90;;;;;;4954679;28;20038;-78
2023/03/02 06:33:18;;;;;;;115.45;51.80;;;-4.70;99.90;;;;;;4965633;28;20025;-77
2023/03/02 06:35:44;;;;;;;91.22;46.50;;;-4.50;99.90;;;;;;4960307;28;20034;-78
2023/03/02 06:38:10;;;;;;;106.75;49.20;;;-4.40;99.90;;;;;;4952480;28;20020;-78
2023/03/02 06:40:35;;;;;;;108.65;53.72;;;-4.20;99.90;;;;;;4964280;28;20039;-77
2023/03/02 06:43:01;;;;;;;112.93;55.60;;;-4.10;99.90;;;;;;4971566;28;20041;-77
2023/03/02 06:45:28;;;;;;;119.43;56.72;;;-3.90;99.90;;;;;;4959566;28;20431;-78
2023/03/02 06:47:54;;;;;;;120.70;59.22;;;-3.70;99.90;;;;;;4970663;28;20039;-77
2023/03/02 06:50:19;;;;;;;125.93;63.20;;;-3.50;99.90;;;;;;4970899;28;20027;-77
2023/03/02 06:52:45;;;;;;;141.98;70.32;;;-3.30;99.90;;;;;;4969865;28;20029;-77
2023/03/02 06:55:11;;;;;;;346.75;134.48;;;-3.00;99.90;;;;;;4970402;28;20041;-77
2023/03/02 06:57:36;;;;;;;985.08;440.88;;;-2.80;99.90;;;;;;4970759;28;20027;-78
2023/03/02 07:00:16;;;;;;;547.00;236.30;;;-2.60;99.90;;;;;;4969233;28;20031;-77
2023/03/02 07:02:43;;;;;;;367.17;145.82;;;-2.40;99.90;;;;;;4970847;28;20031;-77
2023/03/02 07:05:09;;;;;;;349.52;141.27;;;-2.20;99.90;;;;;;4969490;28;20019;-77
2023/03/02 07:07:35;;;;;;;275.08;113.82;;;-2.00;99.90;;;;;;4969231;28;20037;-77
2023/03/02 07:10:01;;;;;;;260.63;107.30;;;-1.80;99.90;;;;;;4970640;28;20023;-78
2023/03/02 07:12:27;;;;;;;198.52;93.05;;;-1.60;99.90;;;;;;4971185;28;20023;-78
2023/03/02 07:14:53;;;;;;;137.35;61.80;;;-1.40;99.90;;;;;;4970706;28;20057;-80
2023/03/02 07:17:18;;;;;;;120.78;55.47;;;-1.10;99.90;;;;;;4971120;28;20062;-80
2023/03/02 07:19:44;;;;;;;114.15;51.45;;;-0.90;99.90;;;;;;4969773;28;20054;-78
2023/03/02 07:22:10;;;;;;;93.97;43.33;;;-0.60;99.90;;;;;;4970979;28;20023;-78
2023/03/02 07:24:35;;;;;;;64.80;32.88;;;-0.40;99.90;;;;;;4971263;28;20030;-78
2023/03/02 07:27:01;;;;;;;56.20;27.60;;;0.00;99.90;;;;;;4970912;28;20165;-78
2023/03/02 07:29:27;;;;;;;58.72;27.42;;;0.30;99.90;;;;;;4972356;28;20050;-77
2023/03/02 07:31:55;;;;;;;54.58;25.38;;;0.60;98.80;;;;;;4970956;28;20543;-78
2023/03/02 07:34:23;;;;;;;57.72;25.92;;;0.90;91.80;;;;;;4970924;28;20019;-77
2023/03/02 07:36:49;;;;;;;47.85;22.70;;;1.10;87.50;;;;;;4970926;28;20515;-77
2023/03/02 07:39:15;;;;;;;48.17;24.23;;;1.30;82.20;;;;;;4972166;28;20023;-77
2023/03/02 07:41:40;;;;;;;44.75;25.13;;;1.50;81.00;;;;;;4932527;29;20063;-77
2023/03/02 07:44:06;;;;;;;44.95;23.02;;;1.70;80.20;;;;;;4932849;29;20030;-78
2023/03/02 07:46:31;;;;;;;50.80;25.02;;;1.80;78.00;;;;;;4932254;29;20039;-77
2023/03/02 07:48:58;;;;;;;46.05;24.60;;;1.90;76.20;;;;;;4933767;29;20059;-78
2023/03/02 07:51:24;;;;;;;46.90;21.20;;;2.00;75.20;;;;;;4932430;29;20019;-78
2023/03/02 07:53:49;;;;;;;45.17;22.50;;;2.20;73.70;;;;;;4935878;28;20473;-78
2023/03/02 07:56:15;;;;;;;49.70;21.25;;;2.20;72.40;;;;;;4966264;28;20034;-78
2023/03/02 07:58:41;;;;;;;38.95;20.85;;;2.20;70.80;;;;;;4970707;28;20051;-79
2023/03/02 08:01:07;;;;;;;43.45;22.15;;;2.30;71.10;;;;;;4962893;28;20023;-79
2023/03/02 08:03:34;;;;;;;39.75;20.73;;;2.40;70.90;;;;;;4951435;28;20023;-78
2023/03/02 08:06:04;;;;;;;34.78;20.35;;;2.50;70.60;;;;;;4952537;28;20027;-78
2023/03/02 08:08:30;;;;;;;31.13;19.15;;;2.60;69.40;;;;;;4951285;29;20030;-78
2023/03/02 08:11:04;;;;;;;44.33;20.23;;;2.60;68.70;;;;;;4951163;28;20396;-78
2023/03/02 08:13:29;;;;;;;42.03;21.67;;;2.80;69.70;;;;;;4951345;29;20027;-78
2023/03/02 08:16:03;;;;;;;42.20;20.27;;;2.80;68.40;;;;;;4951161;28;20504;-78
2023/03/02 08:18:29;;;;;;;42.03;22.00;;;2.90;68.00;;;;;;4952333;28;20481;-78
2023/03/02 08:20:56;;;;;;;42.17;21.95;;;3.00;68.50;;;;;;4950977;29;20126;-78
2023/03/02 08:23:22;;;;;;;40.08;19.17;;;3.20;68.60;;;;;;4952338;28;20358;-78
2023/03/02 08:25:48;;;;;;;41.65;21.50;;;3.20;67.80;;;;;;4950984;28;20038;-78
2023/03/02 08:28:14;;;;;;;41.85;20.95;;;3.30;67.00;;;;;;4952165;29;20416;-78
2023/03/02 08:30:39;;;;;;;36.85;19.30;;;3.40;66.50;;;;;;4950985;28;20019;-78
2023/03/02 08:33:05;;;;;;;33.25;17.52;;;3.50;66.80;;;;;;4951315;29;20077;-79
2023/03/02 08:35:30;;;;;;;30.85;17.58;;;3.60;66.30;;;;;;4951421;28;20026;-78
2023/03/02 08:37:58;;;;;;;35.92;18.30;;;3.60;65.60;;;;;;4949730;28;20407;-79
2023/03/02 08:40:24;;;;;;;37.25;18.13;;;3.70;65.40;;;;;;4949533;28;20035;-79
2023/03/02 08:42:55;;;;;;;38.47;19.45;;;3.80;65.00;;;;;;4951302;28;20492;-79
2023/03/02 08:45:22;;;;;;;36.13;18.50;;;3.80;64.70;;;;;;4950082;28;20065;-79
2023/03/02 08:47:48;;;;;;;40.50;20.17;;;3.90;64.90;;;;;;4949975;28;20039;-79
2023/03/02 08:50:14;;;;;;;40.60;21.05;;;4.10;65.40;;;;;;4951113;28;20077;-79
2023/03/02 08:52:39;;;;;;;36.67;20.08;;;4.10;63.90;;;;;;4950848;28;20024;-79
2023/03/02 08:55:05;;;;;;;45.58;21.92;;;4.10;64.60;;;;;;4952744;28;20024;-79
2023/03/02 08:57:33;;;;;;;34.05;19.95;;;4.20;64.20;;;;;;4954067;28;20028;-79
2023/03/02 08:59:59;;;;;;;39.67;21.67;;;4.30;63.60;;;;;;4955329;28;20031;-78
2023/03/02 09:02:24;;;;;;;30.77;16.75;;;4.30;63.80;;;;;;4952753;28;20027;-79
2023/03/02 09:04:50;;;;;;;28.55;14.93;;;4.40;62.80;;;;;;4955324;28;20023;-79
2023/03/02 09:07:16;;;;;;;31.50;16.58;;;4.40;61.50;;;;;;4955535;28;20034;-79
2023/03/02 09:09:42;;;;;;;31.52;16.67;;;4.50;62.20;;;;;;4955420;28;20027;-79
2023/03/02 09:12:08;;;;;;;35.80;17.23;;;4.40;61.90;;;;;;4954264;28;20030;-80
2023/03/02 09:14:33;;;;;;;30.60;17.00;;;4.50;62.10;;;;;;4953599;28;20028;-79
2023/03/02 09:16:59;;;;;;;33.10;17.75;;;4.50;61.70;;;;;;4955233;28;20034;-79
2023/03/02 09:19:25;;;;;;;36.17;19.45;;;4.60;62.70;;;;;;4955325;28;20028;-79
2023/03/02 09:21:50;;;;;;;36.47;19.60;;;4.60;62.20;;;;;;4956042;28;20038;-79
2023/03/02 09:24:16;;;;;;;28.08;16.02;;;4.60;61.30;;;;;;4957030;28;20034;-79
2023/03/02 09:26:41;;;;;;;33.83;15.23;;;4.70;61.30;;;;;;4954002;28;20061;-79
2023/03/02 09:29:07;;;;;;;28.02;15.48;;;4.90;61.90;;;;;;4954551;28;20027;-79
2023/03/02 09:31:33;;;;;;;21.70;13.15;;;5.00;62.00;;;;;;4954347;28;20515;-79
2023/03/02 09:33:59;;;;;;;25.05;14.10;;;5.00;61.20;;;;;;4954095;28;20019;-79
2023/03/02 09:36:25;;;;;;;30.00;15.13;;;5.00;60.60;;;;;;4952613;28;20028;-79
2023/03/02 09:38:52;;;;;;;29.50;15.23;;;5.10;61.20;;;;;;4952742;28;20043;-79
2023/03/02 09:41:26;;;;;;;26.10;14.30;;;5.20;61.80;;;;;;4953332;28;20052;-80
2023/03/02 09:44:01;;;;;;;24.30;13.18;;;5.20;60.00;;;;;;4953718;29;20066;-80
2023/03/02 09:46:31;;;;;;;24.77;14.60;;;5.20;60.80;;;;;;4951543;28;20039;-79
2023/03/02 09:49:15;;;;;;;28.27;16.30;;;5.20;60.80;;;;;;4952917;28;20023;-80
2023/03/02 09:51:49;;;;;;;24.02;12.63;;;5.30;61.00;;;;;;4952891;28;20038;-79
2023/03/02 09:54:20;;;;;;;22.25;12.98;;;5.40;61.30;;;;;;4954375;28;20028;-80
2023/03/02 09:56:49;;;;;;;18.70;10.20;;;5.40;61.60;;;;;;4953252;28;20081;-80
2023/03/02 09:59:20;;;;;;;22.15;11.52;;;5.40;61.70;;;;;;4954039;28;20054;-79
2023/03/02 10:02:00;;;;;;;39.53;19.15;;;5.50;61.30;;;;;;4954122;28;20057;-80
2023/03/02 10:04:38;;;;;;;33.67;17.50;;;5.60;61.30;;;;;;4954278;28;20027;-79
2023/03/02 10:07:13;;;;;;;21.17;11.07;;;5.70;61.20;;;;;;4954210;28;20027;-80
2023/03/02 10:09:39;;;;;;;19.58;10.02;;;5.80;61.10;;;;;;4954656;28;20039;-79
2023/03/02 10:12:32;;;;;;;20.45;12.02;;;5.80;59.80;;;;;;4954441;28;20477;-80
2023/03/02 10:15:18;;;;;;;;;;;5.90;59.70;;;;;;4954931;28;20062;-80
2023/03/02 10:18:05;;;;;;;12.75;6.88;;;5.90;60.10;;;;;;4969215;28;19949;-79
2023/03/02 10:20:41;;;;;;;21.52;11.60;;;5.90;59.80;;;;;;4953293;29;20043;-80
2023/03/02 10:23:29;;;;;;;14.45;7.95;;;5.90;58.60;;;;;;4952649;29;20082;-80
2023/03/02 10:26:05;;;;;;;16.65;10.00;;;5.80;59.20;;;;;;4954089;28;20035;-80
2023/03/02 10:28:40;;;;;;;19.65;10.82;;;5.80;58.60;;;;;;4954275;28;20385;-79
2023/03/02 10:31:20;;;;;;;17.85;9.50;;;5.90;58.20;;;;;;4954187;28;20027;-80
2023/03/02 10:33:47;;;;;;;17.45;8.00;;;6.00;59.00;;;;;;4952721;28;20480;-80
2023/03/02 10:36:40;;;;;;;14.93;7.82;;;6.00;59.30;;;;;;4954062;28;20023;-79
2023/03/02 10:39:12;;;;;;;15.43;8.63;;;6.00;59.30;;;;;;4957466;28;20118;-79
2023/03/02 10:41:48;;;;;;;16.90;9.75;;;5.90;59.20;;;;;;4953924;28;20477;-79
2023/03/02 10:44:30;;;;;;;22.83;9.93;;;5.90;59.70;;;;;;4953867;28;20027;-80
2023/03/02 10:46:56;;;;;;;16.02;9.95;;;6.00;60.40;;;;;;4953544;28;20450;-80
2023/03/02 10:49:31;;;;;;;17.15;9.65;;;6.00;59.50;;;;;;4953545;28;20101;-79
2023/03/02 10:52:01;;;;;;;21.33;10.38;;;5.90;58.80;;;;;;4953368;28;20085;-80
2023/03/02 10:54:28;;;;;;;15.02;9.25;;;5.90;58.20;;;;;;4952841;28;20071;-80
2023/03/02 10:57:17;;;;;;;15.55;9.35;;;6.00;58.80;;;;;;4952481;28;20071;-80
2023/03/02 10:59:45;;;;;;;17.95;9.40;;;6.00;57.90;;;;;;4950725;28;20036;-80
2023/03/02 11:02:15;;;;;;;11.98;7.40;;;6.00;58.50;;;;;;4952994;28;20028;-80
2023/03/02 11:04:41;;;;;;;16.88;9.00;;;6.20;57.90;;;;;;4960159;28;20023;-80
2023/03/02 11:07:16;;;;;;;17.05;8.80;;;6.30;58.30;;;;;;4972138;28;20448;-79
2023/03/02 11:09:42;;;;;;;17.75;10.10;;;6.40;57.50;;;;;;4969394;28;20023;-80
2023/03/02 11:12:16;;;;;;;18.05;9.43;;;6.40;58.70;;;;;;4970231;28;20480;-80
2023/03/02 11:14:42;;;;;;;20.02;12.20;;;6.50;59.90;;;;;;4972856;28;20027;-80
2023/03/02 11:17:26;;;;;;;16.08;8.45;;;6.50;58.00;;;;;;4970554;28;20029;-80
2023/03/02 11:19:52;;;;;;;15.82;8.82;;;6.40;57.10;;;;;;4970558;28;20038;-81
2023/03/02 11:22:32;;;;;;;18.63;8.80;;;6.40;56.50;;;;;;4970927;28;20022;-80
2023/03/02 11:25:02;;;;;;;17.08;10.13;;;6.40;56.80;;;;;;4970605;28;20030;-80
2023/03/02 11:27:32;;;;;;;17.92;9.55;;;6.40;58.20;;;;;;4970062;28;20066;-80
2023/03/02 11:30:10;;;;;;;17.02;10.13;;;6.30;57.40;;;;;;4950615;28;20508;-80
2023/03/02 11:32:46;;;;;;;18.85;10.02;;;6.30;58.00;;;;;;4951602;28;20032;-80
2023/03/02 11:35:24;;;;;;;23.05;10.85;;;6.40;59.00;;;;;;4952689;28;20085;-80
2023/03/02 11:37:56;;;;;;;15.35;10.35;;;6.30;57.60;;;;;;4951402;28;20057;-80
2023/03/02 11:40:30;;;;;;;21.88;10.07;;;6.30;56.70;;;;;;4952679;28;20485;-80
2023/03/02 11:42:58;;;;;;;17.95;9.48;;;6.40;57.30;;;;;;4951015;28;20020;-80
2023/03/02 11:45:36;;;;;;;17.63;10.70;;;6.50;58.80;;;;;;4952564;28;20027;-80
2023/03/02 11:48:07;;;;;;;19.83;11.30;;;6.50;57.80;;;;;;4952407;28;20036;-80
2023/03/02 11:51:01;;;;;;;22.00;10.65;;;6.60;57.30;;;;;;4952485;28;20106;-80
2023/03/02 11:53:59;;;;;;;18.17;10.82;;;6.60;57.40;;;;;;4969493;28;20118;-80
2023/03/02 11:56:30;;;;;;;22.52;10.95;;;6.60;57.10;;;;;;4951567;28;20031;-80
2023/03/02 11:59:03;;;;;;;19.42;10.73;;;6.60;58.20;;;;;;4952420;28;20032;-80
2023/03/02 12:01:30;;;;;;;25.25;12.52;;;6.60;57.70;;;;;;4952348;28;20038;-80
2023/03/02 12:04:10;;;;;;;22.00;10.45;;;6.70;57.90;;;;;;4952152;28;20020;-80
2023/03/02 12:06:42;;;;;;;16.38;9.15;;;6.70;57.60;;;;;;4952004;28;20030;-80
2023/03/02 12:09:23;;;;;;;17.50;9.70;;;6.70;56.50;;;;;;4951990;28;20031;-80
2023/03/02 12:12:00;;;;;;;16.60;10.30;;;6.70;55.80;;;;;;4952065;29;20054;-80
2023/03/02 12:14:38;;;;;;;19.98;10.77;;;6.70;55.90;;;;;;4952061;28;20023;-80
2023/03/02 12:17:24;;;;;;;30.27;11.50;;;6.70;55.20;;;;;;4952226;28;20370;-80
2023/03/02 12:20:07;;;;;;;38.42;15.48;;;6.80;56.90;;;;;;4951719;28;20039;-80
2023/03/02 12:22:34;;;;;;;17.80;9.88;;;6.80;57.70;;;;;;4952260;28;20031;-80
2023/03/02 12:25:18;;;;;;;18.95;10.07;;;6.80;56.80;;;;;;4951832;28;20050;-80
2023/03/02 12:27:46;;;;;;;18.65;10.20;;;6.80;55.40;;;;;;4951983;28;20102;-80
2023/03/02 12:30:14;;;;;;;27.20;13.43;;;6.90;55.90;;;;;;4951222;28;20023;-80
2023/03/02 12:32:47;;;;;;;64.35;30.50;;;6.90;57.90;;;;;;4951740;28;20032;-80
2023/03/02 12:35:17;;;;;;;23.33;11.88;;;7.00;57.40;;;;;;4951111;28;20058;-80
2023/03/02 12:37:56;;;;;;;21.00;11.38;;;7.00;56.60;;;;;;4952098;29;20376;-80
2023/03/02 12:40:37;;;;;;;22.67;10.90;;;7.00;55.90;;;;;;4951283;28;20499;-80
2023/03/02 12:43:26;;;;;;;19.80;11.10;;;7.00;56.60;;;;;;4951876;28;20023;-80